Statia Express — V7TT3 — position and weather

sailwx.info

Track history (hours):
 
Tides and Currents Weather Stations Pressure Air Temp Water Temp Dewpoint Dewpoint Depression Visibility Wind Speed Wind Dir Waves Ship Positions

Statia Express

Last reported at 2014-Dec-10 02:32 UTC. Time now 2014-Dec-19 04:43 UTC.
Position N 17°45' W 063°04'.
Warning: this ship's position is 9 days out of date.

Length 28 m; draft 4.1 m.

Type: Tug. MMSI: 538003879.

Date/timePositionNaut miles runAvg speedWind from/ knotsBaromVisibWave heightAir tempDewpointWater temp
2014-Dec-10 02:32N 17°45' W 063°04'13 6.3
2014-Dec-10 00:28N 17°58' W 063°05'3 1.6
2014-Dec-09 22:17N 18°01' W 063°03'0 0.1
2014-Dec-09 20:06N 18°01' W 063°03'0 0.0
2014-Dec-09 12:18N 18°00' W 063°03'0 0.5
2014-Dec-09 11:14N 18°01' W 063°03'0 0.3
2014-Dec-09 10:13N 18°01' W 063°03'2 3.2
2014-Dec-09 09:33N 17°59' W 063°05'8 6.5
2014-Dec-09 08:16N 17°51' W 063°04'5 6.8
2014-Dec-09 07:33N 17°46' W 063°03'  
2014-Dec-04 00:32N 17°40' W 063°03'7 7.0
2014-Dec-03 23:30N 17°47' W 063°04'9 7.0
2014-Dec-03 22:17N 17°56' W 063°05'5 1.9
2014-Dec-03 19:31N 18°01' W 063°03'1 0.1
2014-Dec-03 14:11N 18°00' W 063°03'0 0.2
2014-Dec-03 12:21N 18°00' W 063°03'0 0.2
2014-Dec-03 10:23N 18°01' W 063°03'0 0.0
2014-Dec-03 09:15N 18°01' W 063°03'0 0.0
2014-Dec-03 08:20N 18°01' W 063°03'0 0.0
2014-Dec-03 06:25N 18°01' W 063°03'0 0.0
2014-Dec-03 04:27N 18°01' W 063°03'0 0.0
2014-Dec-03 03:17N 18°01' W 063°03'0 0.0
2014-Dec-03 01:27N 18°01' W 063°03'0 0.0
2014-Dec-03 00:16N 18°01' W 063°03'0 0.4
2014-Dec-02 23:13N 18°01' W 063°03'0 0.6
2014-Dec-02 22:33N 18°01' W 063°03'0 0.0
2014-Dec-02 21:21N 18°01' W 063°03'0 0.0
2014-Dec-02 20:04N 18°01' W 063°03'0 0.4
2014-Dec-02 19:22N 18°01' W 063°03'0 0.0
2014-Dec-02 12:24N 18°01' W 063°03'0 0.3
2014-Dec-02 11:30N 18°01' W 063°03'0 0.4
2014-Dec-02 10:14N 18°01' W 063°03'1 0.7
2014-Dec-02 09:30N 18°01' W 063°03'0 0.0
2014-Dec-02 05:11N 18°01' W 063°03'0 0.0
2014-Dec-02 04:25N 18°01' W 063°03'1 0.3
2014-Dec-02 02:31N 18°00' W 063°03'1 0.2
2014-Dec-01 23:32N 18°00' W 063°03'2 2.2
2014-Dec-01 22:30N 17°59' W 063°05'13 5.8
2014-Dec-01 20:14N 17°46' W 063°04'  
Track history (hours):
 
Tides and Currents Weather Stations Pressure Air Temp Water Temp Dewpoint Dewpoint Depression Visibility Wind Speed Wind Dir Waves Ship Positions

Statia Express

Last reported at 2014-Dec-10 02:32 UTC. Time now 2014-Dec-19 04:43 UTC.
Position N 17°45' W 063°04'.
Warning: this ship's position is 9 days out of date.

Length 28 m; draft 4.1 m.

Type: Tug. MMSI: 538003879.

Date/timePositionNaut miles runAvg speedWind from/ knotsBaromVisibWave heightAir tempDewpointWater temp
2014-Dec-10 02:32N 17°45' W 063°04'13 6.3
2014-Dec-10 00:28N 17°58' W 063°05'3 1.6
2014-Dec-09 22:17N 18°01' W 063°03'0 0.1
2014-Dec-09 20:06N 18°01' W 063°03'0 0.0
2014-Dec-09 12:18N 18°00' W 063°03'0 0.5
2014-Dec-09 11:14N 18°01' W 063°03'0 0.3
2014-Dec-09 10:13N 18°01' W 063°03'2 3.2
2014-Dec-09 09:33N 17°59' W 063°05'8 6.5
2014-Dec-09 08:16N 17°51' W 063°04'5 6.8
2014-Dec-09 07:33N 17°46' W 063°03'  
2014-Dec-04 00:32N 17°40' W 063°03'7 7.0
2014-Dec-03 23:30N 17°47' W 063°04'9 7.0
2014-Dec-03 22:17N 17°56' W 063°05'5 1.9
2014-Dec-03 19:31N 18°01' W 063°03'1 0.1
2014-Dec-03 14:11N 18°00' W 063°03'0 0.2
2014-Dec-03 12:21N 18°00' W 063°03'0 0.2
2014-Dec-03 10:23N 18°01' W 063°03'0 0.0
2014-Dec-03 09:15N 18°01' W 063°03'0 0.0
2014-Dec-03 08:20N 18°01' W 063°03'0 0.0
2014-Dec-03 06:25N 18°01' W 063°03'0 0.0
2014-Dec-03 04:27N 18°01' W 063°03'0 0.0
2014-Dec-03 03:17N 18°01' W 063°03'0 0.0
2014-Dec-03 01:27N 18°01' W 063°03'0 0.0
2014-Dec-03 00:16N 18°01' W 063°03'0 0.4
2014-Dec-02 23:13N 18°01' W 063°03'0 0.6
2014-Dec-02 22:33N 18°01' W 063°03'0 0.0
2014-Dec-02 21:21N 18°01' W 063°03'0 0.0
2014-Dec-02 20:04N 18°01' W 063°03'0 0.4
2014-Dec-02 19:22N 18°01' W 063°03'0 0.0
2014-Dec-02 12:24N 18°01' W 063°03'0 0.3
2014-Dec-02 11:30N 18°01' W 063°03'0 0.4
2014-Dec-02 10:14N 18°01' W 063°03'1 0.7
2014-Dec-02 09:30N 18°01' W 063°03'0 0.0
2014-Dec-02 05:11N 18°01' W 063°03'0 0.0
2014-Dec-02 04:25N 18°01' W 063°03'1 0.3
2014-Dec-02 02:31N 18°00' W 063°03'1 0.2
2014-Dec-01 23:32N 18°00' W 063°03'2 2.2
2014-Dec-01 22:30N 17°59' W 063°05'13 5.8
2014-Dec-01 20:14N 17°46' W 063°04'  

Dump ship's entire track history